香港 の空港の天気 - METARとTAF

香港国際空港 ( VHHH / HKG ) - 香港 赤リョウ角
飛行場実況気象(Metar)
観測時間05/28 08:00 HKT (05/28 00:00 UTC)
風向・風速東 5m/s
視程10km以上
天気現象
少しの雲 雲底高度 400m
気温29℃
湿度79%
気圧1010hPa
METARVHHH 280000Z 09009KT 9999 FEW013 29/25 Q1010 NOSIG
過去の天気等 Google飛行場航空写真 Wunderground天気予報

過去48時間のMETAR

飛行場予報(TAF)
発表時間: 5/28 07:00 HKT (5/27 23:00 UTC)
予報対象時間: 28日8時 HKT ~ 29日14時 HKT
風向・風速東 5m/s
視程9000m
少しの雲 雲底高度 610m
全天の4割程度の雲 雲底高度 1220m
28日8時 HKT ~ 28日11時 HKT に一時的に
視程4000m
天気現象しゅう雨
少しの積乱雲 雲底高度 300m
全天の4割程度の雲 雲底高度 610m
28日11時 HKT ~ 28日17時 HKT に一時的に
風向・風速西南西 8m/s 瞬間風速 13m/s
視程3500m
天気現象弱い雷雨 しゅう雨
少しの積乱雲 雲底高度 300m
全天の4割程度の雲 雲底高度 610m
28日17時 HKT ~ 28日19時 HKT に徐々に
風向・風速南南東 5m/s
29日2時 HKT ~ 29日8時 HKT に一時的に
視程4000m
天気現象しゅう雨
少しの積乱雲 雲底高度 300m
全天の4割程度の雲 雲底高度 610m
29日8時 HKT ~ 29日14時 HKT に一時的に
風向・風速西南西 8m/s 瞬間風速 13m/s
視程3500m
天気現象弱い雷雨 しゅう雨
少しの積乱雲 雲底高度 300m
全天の4割程度の雲 雲底高度 610m
TAF VHHH 272300Z 2800/2906 10010KT 9000 FEW020 SCT040 TX31/2806Z TX30/2906Z TN26/2822Z
TEMPO 2800/2803 4000 SHRA FEW010CB SCT020
TEMPO 2803/2809 24015G25KT 3500 -TSRA SHRA FEW010CB SCT020
BECMG 2809/2811 16010KT
TEMPO 2818/2824 4000 SHRA FEW010CB SCT020
TEMPO 2900/2906 24015G25KT 3500 -TSRA SHRA FEW010CB SCT020